createdAt,value
2022-09-15T00:00:32.915Z,21.98
2022-09-15T00:02:56.163Z,21.95
2022-09-15T00:05:19.543Z,21.93
2022-09-15T00:07:42.288Z,21.83
2022-09-15T00:10:07.524Z,21.84
2022-09-15T00:12:30.797Z,21.95
2022-09-15T00:14:54.002Z,21.93
2022-09-15T00:17:16.959Z,21.86
2022-09-15T00:19:40.439Z,21.87
2022-09-15T00:22:03.307Z,21.93
2022-09-15T00:24:27.473Z,21.84
2022-09-15T00:26:50.327Z,21.80
2022-09-15T00:29:13.152Z,21.71
2022-09-15T00:31:36.067Z,21.70
2022-09-15T00:34:02.591Z,21.66
2022-09-15T00:36:26.855Z,21.69
2022-09-15T00:38:50.734Z,21.64
2022-09-15T00:41:17.496Z,21.61
2022-09-15T00:43:49.228Z,21.60
2022-09-15T00:46:13.469Z,21.59
2022-09-15T00:48:40.143Z,21.51
2022-09-15T00:51:04.811Z,21.42
2022-09-15T00:53:28.267Z,21.42
2022-09-15T00:55:51.950Z,21.39
2022-09-15T00:58:25.323Z,21.39
2022-09-15T01:00:56.653Z,21.42
2022-09-15T01:03:19.773Z,21.33
2022-09-15T01:05:48.166Z,21.33
2022-09-15T01:08:34.577Z,21.39
2022-09-15T01:10:58.043Z,21.42
2022-09-15T01:13:20.989Z,21.38
2022-09-15T01:22:25.114Z,21.35
2022-09-15T01:25:14.621Z,21.33
2022-09-15T01:27:55.597Z,21.29
2022-09-15T01:30:23.209Z,21.22
2022-09-15T01:33:04.231Z,21.16
2022-09-15T01:35:48.121Z,21.26
2022-09-15T01:38:30.158Z,21.26
2022-09-15T01:40:59.460Z,21.21
2022-09-15T01:43:25.267Z,21.16
2022-09-15T01:45:50.179Z,21.13
2022-09-15T01:48:13.871Z,21.12
2022-09-15T01:50:51.232Z,21.12
2022-09-15T01:53:18.968Z,21.21
2022-09-15T01:55:56.329Z,21.12
2022-09-15T01:58:19.454Z,21.13
2022-09-15T02:00:48.597Z,21.18
2022-09-15T02:03:20.337Z,21.16
2022-09-15T02:05:48.760Z,21.06
2022-09-15T02:08:25.608Z,21.13
2022-09-15T02:10:51.075Z,21.21
2022-09-15T02:13:20.649Z,21.15
2022-09-15T02:15:51.616Z,21.15
2022-09-15T02:18:35.904Z,21.08
2022-09-15T02:21:10.205Z,21.16
2022-09-15T02:23:39.071Z,21.19
2022-09-15T02:26:08.561Z,21.21
2022-09-15T02:28:34.956Z,21.18
2022-09-15T02:31:00.145Z,21.22
2022-09-15T02:33:25.302Z,21.21
2022-09-15T02:35:48.174Z,21.15
2022-09-15T02:38:12.115Z,21.11
2022-09-15T02:40:36.728Z,21.11
2022-09-15T02:43:05.585Z,21.18
2022-09-15T02:45:31.093Z,21.28
2022-09-15T02:47:54.203Z,21.26
2022-09-15T02:50:18.155Z,21.21
2022-09-15T02:52:40.796Z,21.16
2022-09-15T02:55:04.784Z,21.19
2022-09-15T02:57:27.956Z,21.16
2022-09-15T03:00:09.817Z,21.12
2022-09-15T03:02:32.674Z,21.13
2022-09-15T03:04:55.496Z,21.21
2022-09-15T03:07:19.510Z,21.19
2022-09-15T03:09:42.534Z,21.22
2022-09-15T03:12:05.692Z,21.35
2022-09-15T03:14:29.712Z,21.36
2022-09-15T03:16:52.586Z,21.29
2022-09-15T03:19:15.297Z,21.28
2022-09-15T03:21:38.480Z,21.35
2022-09-15T03:24:01.567Z,21.36
2022-09-15T03:26:25.180Z,21.35
2022-09-15T03:28:48.301Z,21.29
2022-09-15T03:31:11.169Z,21.33
2022-09-15T03:33:34.717Z,21.25
2022-09-15T03:35:58.332Z,21.22
2022-09-15T03:38:21.126Z,21.15
2022-09-15T03:40:44.542Z,21.05
2022-09-15T03:43:07.436Z,21.01
2022-09-15T03:45:30.530Z,20.83
2022-09-15T03:47:53.530Z,20.65
2022-09-15T03:50:16.327Z,20.61
2022-09-15T03:52:39.382Z,20.53
2022-09-15T03:55:02.505Z,20.47
2022-09-15T03:57:25.453Z,20.47
2022-09-15T03:59:48.228Z,20.40
2022-09-15T04:02:11.333Z,20.37
2022-09-15T04:04:34.912Z,20.34
2022-09-15T04:06:58.043Z,20.29
2022-09-15T04:09:21.537Z,20.30
2022-09-15T04:11:44.341Z,20.26
2022-09-15T04:14:07.247Z,20.27
2022-09-15T04:16:30.234Z,20.27
2022-09-15T04:18:55.021Z,20.30
2022-09-15T04:21:20.455Z,20.25
2022-09-15T04:23:44.362Z,20.26
2022-09-15T04:26:11.879Z,20.27
2022-09-15T04:28:37.528Z,20.26
2022-09-15T04:31:09.045Z,20.23
2022-09-15T04:33:32.394Z,20.22
2022-09-15T04:36:02.853Z,20.17
2022-09-15T04:38:28.612Z,20.15
2022-09-15T04:40:51.486Z,20.15
2022-09-15T04:43:15.490Z,20.04
2022-09-15T04:45:38.336Z,20.15
2022-09-15T04:48:01.458Z,20.02
2022-09-15T04:53:00.708Z,20.12
2022-09-15T04:55:23.724Z,20.22
2022-09-15T04:57:46.656Z,20.19
2022-09-15T05:00:10.077Z,20.37
2022-09-15T05:02:33.406Z,20.36
2022-09-15T05:04:56.512Z,20.44
2022-09-15T05:07:19.419Z,20.43
2022-09-15T05:09:42.140Z,20.43
2022-09-15T05:12:05.651Z,20.54
2022-09-15T05:14:29.391Z,20.50
2022-09-15T05:16:52.743Z,20.44
2022-09-15T05:19:15.510Z,20.50
2022-09-15T05:21:38.841Z,20.58
2022-09-15T05:24:01.978Z,20.60
2022-09-15T05:26:28.280Z,20.65
2022-09-15T05:28:51.707Z,20.75
2022-09-15T05:31:20.553Z,20.75
2022-09-15T05:33:43.661Z,20.75
2022-09-15T05:36:10.231Z,20.71
2022-09-15T05:38:33.290Z,20.80
2022-09-15T05:41:05.404Z,20.91
2022-09-15T05:43:32.241Z,21.01
2022-09-15T05:45:55.518Z,21.03
2022-09-15T05:48:18.825Z,21.11
2022-09-15T05:50:49.853Z,21.15
2022-09-15T05:53:13.703Z,21.18
2022-09-15T05:55:38.699Z,21.19
2022-09-15T05:58:02.387Z,21.25
2022-09-15T06:00:25.499Z,21.45
2022-09-15T06:02:48.558Z,21.64
2022-09-15T06:05:11.589Z,21.69
2022-09-15T06:07:34.493Z,21.71
2022-09-15T06:09:57.817Z,21.77
2022-09-15T06:12:21.130Z,21.91
2022-09-15T06:14:45.947Z,21.95
2022-09-15T06:17:09.825Z,22.00
2022-09-15T06:19:33.991Z,22.15
2022-09-15T06:21:57.035Z,22.24
2022-09-15T06:24:20.187Z,22.29
2022-09-15T06:26:43.946Z,22.36
2022-09-15T06:29:06.807Z,22.43
2022-09-15T06:31:34.316Z,22.60
2022-09-15T06:33:58.005Z,22.67
2022-09-15T06:36:23.263Z,22.76
2022-09-15T06:38:46.796Z,22.86
2022-09-15T06:41:10.635Z,22.83
2022-09-15T06:43:35.071Z,22.83
2022-09-15T06:46:09.319Z,22.91
2022-09-15T06:48:32.845Z,22.94
2022-09-15T06:50:56.089Z,23.07
2022-09-15T06:53:19.336Z,23.15
2022-09-15T06:55:42.808Z,23.10
2022-09-15T06:58:06.124Z,23.12
2022-09-15T07:00:29.387Z,23.14
2022-09-15T07:02:52.290Z,23.10
2022-09-15T07:05:15.641Z,23.12
2022-09-15T07:07:39.560Z,23.15
2022-09-15T07:10:02.794Z,23.14
2022-09-15T07:12:26.148Z,23.14
2022-09-15T07:14:48.974Z,23.08
2022-09-15T07:17:11.884Z,23.12
2022-09-15T07:19:35.234Z,23.24
2022-09-15T07:21:58.180Z,23.32
2022-09-15T07:24:21.122Z,23.22
2022-09-15T07:26:44.210Z,23.12
2022-09-15T07:29:07.489Z,23.10
2022-09-15T07:31:32.849Z,23.06
2022-09-15T07:33:55.918Z,23.03
2022-09-15T07:36:19.754Z,23.10
2022-09-15T07:38:45.227Z,23.14
2022-09-15T07:41:11.044Z,23.28
2022-09-15T07:43:34.132Z,23.44
2022-09-15T07:45:58.739Z,23.66
2022-09-15T07:48:26.442Z,23.83
2022-09-15T07:50:50.705Z,23.82
2022-09-15T07:53:14.403Z,23.82
2022-09-15T07:55:41.016Z,23.82
2022-09-15T07:58:03.863Z,23.97
2022-09-15T08:00:27.088Z,23.96
2022-09-15T08:02:50.118Z,24.07
2022-09-15T08:05:13.251Z,23.90
2022-09-15T08:07:40.189Z,23.93
2022-09-15T08:10:03.408Z,23.94
2022-09-15T08:12:26.477Z,24.06
2022-09-15T08:14:49.481Z,24.34
2022-09-15T08:17:12.717Z,24.35
2022-09-15T08:19:36.028Z,24.61
2022-09-15T08:21:59.697Z,24.81
2022-09-15T08:24:23.774Z,24.89
2022-09-15T08:26:47.281Z,24.98
2022-09-15T08:29:10.520Z,25.08
2022-09-15T08:31:33.733Z,25.22
2022-09-15T08:33:57.374Z,25.30
2022-09-15T08:36:20.913Z,25.41
2022-09-15T08:38:45.535Z,25.47
2022-09-15T08:41:25.667Z,25.51
2022-09-15T08:44:00.126Z,25.53
2022-09-15T08:46:32.717Z,25.58
2022-09-15T08:49:11.191Z,25.71
2022-09-15T08:51:46.297Z,25.73
2022-09-15T08:54:18.657Z,25.70
2022-09-15T08:56:43.527Z,25.85
2022-09-15T08:59:08.614Z,26.05
2022-09-15T09:01:53.536Z,26.19
2022-09-15T09:04:47.361Z,26.23
2022-09-15T09:07:37.462Z,26.11
2022-09-15T09:10:51.277Z,26.08
2022-09-15T09:13:30.966Z,25.99
2022-09-15T09:16:09.908Z,26.13
2022-09-15T09:18:47.013Z,26.19
2022-09-15T09:21:10.507Z,26.30
2022-09-15T09:23:37.830Z,26.26
2022-09-15T09:26:02.246Z,26.13
2022-09-15T09:28:31.010Z,26.20
2022-09-15T09:30:57.166Z,26.20
2022-09-15T09:33:38.542Z,26.29
2022-09-15T09:36:03.473Z,26.44
2022-09-15T09:38:36.830Z,26.41
2022-09-15T09:41:02.508Z,26.78
2022-09-15T09:43:27.888Z,26.98
2022-09-15T09:45:50.940Z,27.09
2022-09-15T09:48:22.156Z,27.15
2022-09-15T09:50:45.874Z,27.36
2022-09-15T09:53:31.507Z,27.50
2022-09-15T09:56:13.163Z,27.79
2022-09-15T09:58:36.312Z,27.86
2022-09-15T10:01:11.503Z,27.96
2022-09-15T10:03:34.487Z,28.00
2022-09-15T10:06:04.379Z,27.94
2022-09-15T10:08:27.252Z,27.91
2022-09-15T10:10:52.786Z,27.97
2022-09-15T10:13:15.885Z,27.98
2022-09-15T10:15:40.562Z,28.15
2022-09-15T10:18:04.067Z,28.24
2022-09-15T10:20:32.898Z,28.29
2022-09-15T10:23:24.482Z,28.18
2022-09-15T10:25:59.406Z,27.89
2022-09-15T10:28:26.221Z,28.01
2022-09-15T10:31:07.397Z,28.07
2022-09-15T10:33:32.335Z,28.14
2022-09-15T10:36:01.248Z,28.38
2022-09-15T10:38:36.441Z,28.58
2022-09-15T10:41:14.496Z,28.79
2022-09-15T10:43:46.013Z,28.97
2022-09-15T10:46:26.694Z,29.13
2022-09-15T10:49:05.048Z,29.14
2022-09-15T10:51:31.375Z,29.00
2022-09-15T10:54:33.637Z,29.17
2022-09-15T10:57:22.830Z,29.15
2022-09-15T10:59:59.855Z,29.20
2022-09-15T11:02:50.547Z,29.23
2022-09-15T11:05:34.406Z,29.10
2022-09-15T11:08:26.996Z,28.97
2022-09-15T11:11:08.771Z,28.58
2022-09-15T11:14:04.822Z,28.49
2022-09-15T11:16:47.295Z,28.41
2022-09-15T11:19:21.472Z,28.28
2022-09-15T11:22:09.208Z,28.25
2022-09-15T11:24:41.697Z,28.21
2022-09-15T11:27:22.255Z,28.14
2022-09-15T11:29:59.549Z,27.91
2022-09-15T11:32:32.025Z,27.59
2022-09-15T11:35:02.610Z,27.52
2022-09-15T11:37:34.266Z,27.67
2022-09-15T11:40:04.842Z,27.71
2022-09-15T11:42:31.179Z,27.89
2022-09-15T11:44:56.467Z,28.19
2022-09-15T11:47:42.818Z,28.28
2022-09-15T11:50:20.688Z,28.46
2022-09-15T11:52:58.847Z,28.52
2022-09-15T11:55:42.478Z,28.51
2022-09-15T11:58:35.972Z,28.59
2022-09-15T12:01:27.788Z,28.62
2022-09-15T12:03:59.634Z,28.63
2022-09-15T12:06:46.347Z,28.59
2022-09-15T12:09:15.992Z,28.51
2022-09-15T12:11:43.494Z,28.34
2022-09-15T12:14:15.140Z,28.17
2022-09-15T12:16:38.199Z,28.00
2022-09-15T12:19:21.758Z,27.73
2022-09-15T12:21:56.371Z,27.64
2022-09-15T12:24:34.757Z,27.49
2022-09-15T12:27:00.845Z,27.32
2022-09-15T12:29:26.698Z,27.16
2022-09-15T12:32:09.898Z,27.28
2022-09-15T12:34:38.443Z,27.35
2022-09-15T12:37:11.261Z,27.45
2022-09-15T12:39:41.039Z,27.42
2022-09-15T12:42:26.386Z,27.31
2022-09-15T12:44:55.323Z,27.06
2022-09-15T12:47:30.181Z,26.87
2022-09-15T12:49:56.398Z,26.49
2022-09-15T12:52:22.032Z,26.40
2022-09-15T12:54:51.758Z,26.50
2022-09-15T12:57:28.218Z,26.74
2022-09-15T13:00:20.958Z,26.88
2022-09-15T13:02:49.502Z,26.98
2022-09-15T13:05:14.536Z,26.99
2022-09-15T13:07:54.697Z,26.95
2022-09-15T13:10:30.757Z,26.90
2022-09-15T13:13:07.854Z,26.84
2022-09-15T13:15:31.204Z,26.41
2022-09-15T13:17:54.592Z,26.32
2022-09-15T13:20:29.827Z,25.91
2022-09-15T13:22:56.395Z,25.67
2022-09-15T13:25:26.266Z,25.63
2022-09-15T13:27:58.489Z,25.44
2022-09-15T13:30:40.701Z,25.17
2022-09-15T13:35:02.150Z,24.90
2022-09-15T13:39:18.600Z,24.47
2022-09-15T13:41:47.425Z,24.62
2022-09-15T13:44:54.845Z,24.64
2022-09-15T13:47:30.376Z,24.68
2022-09-15T13:50:12.011Z,24.60
2022-09-15T13:53:02.256Z,24.45
2022-09-15T13:55:32.885Z,24.28
2022-09-15T14:00:55.163Z,24.12
2022-09-15T14:03:23.942Z,23.96
2022-09-15T14:05:46.904Z,23.87
2022-09-15T14:08:17.741Z,23.90
2022-09-15T14:10:54.968Z,23.92
2022-09-15T14:13:22.012Z,23.97
2022-09-15T14:16:20.873Z,23.83
2022-09-15T14:18:45.704Z,23.70
2022-09-15T14:21:18.408Z,23.76
2022-09-15T14:23:48.458Z,23.77
2022-09-15T14:26:12.840Z,23.87
2022-09-15T14:28:35.466Z,23.94
2022-09-15T14:30:59.989Z,23.99
2022-09-15T14:33:23.188Z,23.99
2022-09-15T14:35:46.306Z,24.06
2022-09-15T14:38:24.353Z,23.99
2022-09-15T14:40:52.484Z,23.92
2022-09-15T14:43:23.807Z,23.85
2022-09-15T14:45:57.772Z,23.83
2022-09-15T14:48:28.189Z,23.77
2022-09-15T14:51:02.235Z,23.54
2022-09-15T14:54:03.119Z,23.12
2022-09-15T14:56:45.499Z,22.66
2022-09-15T14:59:16.614Z,22.28
2022-09-15T15:01:43.029Z,21.73
2022-09-15T15:04:28.826Z,21.29
2022-09-15T15:07:09.275Z,20.57
2022-09-15T15:09:34.518Z,20.47
2022-09-15T15:12:01.106Z,20.26
2022-09-15T15:14:24.054Z,20.19
2022-09-15T15:16:58.632Z,20.06
2022-09-15T15:19:51.812Z,19.90
2022-09-15T15:22:16.728Z,19.79
2022-09-15T15:24:44.194Z,19.75
2022-09-15T15:27:34.087Z,19.67
2022-09-15T15:29:56.715Z,19.62
2022-09-15T15:32:25.114Z,19.46
2022-09-15T15:34:58.473Z,19.64
2022-09-15T15:37:33.956Z,19.78
2022-09-15T15:39:58.610Z,19.81
2022-09-15T15:42:21.777Z,19.85
2022-09-15T15:45:21.912Z,19.88
2022-09-15T15:47:44.720Z,19.96
2022-09-15T15:50:14.431Z,19.86
2022-09-15T15:52:37.600Z,19.85
2022-09-15T15:55:00.240Z,19.71
2022-09-15T15:57:30.648Z,19.77
2022-09-15T15:59:57.031Z,19.81
2022-09-15T16:02:20.673Z,19.85
2022-09-15T16:04:43.243Z,19.85
2022-09-15T16:07:05.787Z,19.88
2022-09-15T16:09:28.587Z,19.81
2022-09-15T16:11:51.278Z,19.81
2022-09-15T16:14:14.292Z,19.83
2022-09-15T16:16:36.938Z,19.86
2022-09-15T16:18:59.569Z,19.85
2022-09-15T16:21:30.353Z,19.83
2022-09-15T16:23:53.105Z,19.82
2022-09-15T16:26:20.673Z,19.64
2022-09-15T16:28:46.594Z,19.55
2022-09-15T16:31:13.998Z,19.37
2022-09-15T16:33:38.254Z,19.30
2022-09-15T16:36:07.070Z,19.23
2022-09-15T16:38:30.109Z,19.16
2022-09-15T16:40:52.901Z,19.12
2022-09-15T16:43:17.986Z,19.19
2022-09-15T16:45:41.185Z,19.22
2022-09-15T16:48:04.421Z,19.20
2022-09-15T16:50:31.240Z,19.04
2022-09-15T16:52:54.276Z,18.89
2022-09-15T16:55:32.095Z,18.81
2022-09-15T16:57:54.741Z,18.86
2022-09-15T17:00:17.974Z,18.86
2022-09-15T17:02:40.730Z,18.92
2022-09-15T17:05:03.548Z,18.86
2022-09-15T17:07:26.976Z,18.82
2022-09-15T17:09:51.270Z,18.82
2022-09-15T17:14:41.952Z,18.73
2022-09-15T17:17:04.542Z,18.73
2022-09-15T17:19:27.216Z,18.75
2022-09-15T17:21:50.391Z,18.72
2022-09-15T17:24:12.951Z,18.75
2022-09-15T17:26:35.715Z,18.81
2022-09-15T17:28:58.942Z,18.75
2022-09-15T17:31:23.585Z,18.79
2022-09-15T17:33:47.936Z,18.79
2022-09-15T17:36:10.938Z,18.82
2022-09-15T17:38:34.036Z,18.76
2022-09-15T17:40:56.706Z,18.84
2022-09-15T17:43:21.844Z,18.81
2022-09-15T17:45:44.512Z,18.77
2022-09-15T17:48:07.746Z,18.69
2022-09-15T17:50:32.628Z,18.71
2022-09-15T17:52:55.761Z,18.71
2022-09-15T17:55:18.837Z,18.68
2022-09-15T17:57:41.413Z,18.76
2022-09-15T18:00:05.266Z,18.76
2022-09-15T18:02:27.995Z,18.84
2022-09-15T18:04:50.719Z,18.81
2022-09-15T18:07:13.215Z,18.72
2022-09-15T18:09:36.269Z,18.65
2022-09-15T18:11:58.872Z,18.64
2022-09-15T18:14:21.513Z,18.65
2022-09-15T18:16:44.047Z,18.66
2022-09-15T18:19:06.697Z,18.68
2022-09-15T18:21:30.011Z,18.64
2022-09-15T18:23:53.140Z,18.59
2022-09-15T18:26:15.954Z,18.65
2022-09-15T18:28:39.037Z,18.65
2022-09-15T18:31:01.812Z,18.62
2022-09-15T18:33:27.135Z,18.66
2022-09-15T18:35:52.048Z,18.66
2022-09-15T18:38:14.981Z,18.58
2022-09-15T18:40:38.273Z,18.48
2022-09-15T18:43:01.013Z,18.49
2022-09-15T18:45:25.411Z,18.45
2022-09-15T18:47:49.990Z,18.49
2022-09-15T18:50:13.065Z,18.41
2022-09-15T18:52:37.152Z,18.44
2022-09-15T18:54:59.940Z,18.45
2022-09-15T18:57:22.849Z,18.47
2022-09-15T18:59:47.599Z,18.41
2022-09-15T19:02:11.997Z,18.33
2022-09-15T19:04:39.910Z,18.30
2022-09-15T19:07:03.466Z,18.36
2022-09-15T19:09:26.245Z,18.34
2022-09-15T19:11:48.808Z,18.34
2022-09-15T19:14:11.300Z,18.38
2022-09-15T19:16:53.824Z,18.47
2022-09-15T19:19:16.492Z,18.38
2022-09-15T19:21:39.167Z,18.30
2022-09-15T19:24:02.148Z,18.34
2022-09-15T19:26:28.695Z,18.34
2022-09-15T19:28:51.323Z,18.36
2022-09-15T19:31:14.239Z,18.40
2022-09-15T19:33:37.965Z,18.44
2022-09-15T19:36:26.811Z,18.49
2022-09-15T19:38:48.536Z,18.57
2022-09-15T19:41:13.882Z,18.61
2022-09-15T19:43:38.182Z,18.61
2022-09-15T19:46:00.932Z,18.59
2022-09-15T19:48:23.779Z,18.55
2022-09-15T19:50:46.418Z,18.54
2022-09-15T19:53:08.903Z,18.59
2022-09-15T19:55:34.224Z,18.57
2022-09-15T19:57:56.848Z,18.64
2022-09-15T20:00:20.510Z,18.59
2022-09-15T20:02:47.566Z,18.59
2022-09-15T20:07:50.114Z,18.68
2022-09-15T20:10:12.828Z,18.71
2022-09-15T20:12:35.490Z,18.76
2022-09-15T20:14:58.048Z,18.75
2022-09-15T20:17:20.641Z,18.77
2022-09-15T20:19:43.786Z,18.79
2022-09-15T20:22:06.416Z,18.79
2022-09-15T20:24:29.282Z,18.79
2022-09-15T20:26:52.338Z,18.86
2022-09-15T20:29:14.951Z,18.89
2022-09-15T20:31:37.905Z,18.88
2022-09-15T20:34:02.242Z,18.82
2022-09-15T20:36:33.163Z,18.76
2022-09-15T20:38:56.883Z,18.77
2022-09-15T20:41:23.713Z,18.71
2022-09-15T20:43:47.005Z,18.72
2022-09-15T20:46:16.295Z,18.72
2022-09-15T20:48:39.275Z,18.71
2022-09-15T20:51:02.518Z,18.65
2022-09-15T20:53:25.060Z,18.58
2022-09-15T20:55:51.022Z,18.58
2022-09-15T20:58:13.635Z,18.55
2022-09-15T21:00:36.331Z,18.49
2022-09-15T21:02:58.899Z,18.48
2022-09-15T21:05:21.435Z,18.49
2022-09-15T21:07:43.914Z,18.54
2022-09-15T21:10:08.101Z,18.55
2022-09-15T21:12:31.938Z,18.57
2022-09-15T21:14:55.462Z,18.57
2022-09-15T21:17:18.485Z,18.58
2022-09-15T21:19:43.940Z,18.62
2022-09-15T21:22:06.495Z,18.61
2022-09-15T21:24:28.983Z,18.54
2022-09-15T21:27:10.376Z,18.54
2022-09-15T21:29:33.464Z,18.51
2022-09-15T21:31:56.116Z,18.49
2022-09-15T21:34:18.822Z,18.55
2022-09-15T21:36:41.331Z,18.52
2022-09-15T21:39:03.973Z,18.51
2022-09-15T21:41:32.264Z,18.47
2022-09-15T21:43:55.368Z,18.55
2022-09-15T21:46:20.054Z,18.51
2022-09-15T21:48:44.408Z,18.49
2022-09-15T21:51:11.697Z,18.52
2022-09-15T21:53:37.847Z,18.51
2022-09-15T21:56:02.081Z,18.47
2022-09-15T21:58:26.139Z,18.45
2022-09-15T22:00:50.342Z,18.41
2022-09-15T22:03:13.648Z,18.47
2022-09-15T22:05:36.141Z,18.36
2022-09-15T22:08:04.121Z,18.37
2022-09-15T22:10:27.725Z,18.31
2022-09-15T22:12:52.454Z,18.28
2022-09-15T22:15:15.737Z,18.24
2022-09-15T22:17:38.522Z,18.14
2022-09-15T22:20:01.499Z,18.14
2022-09-15T22:22:25.314Z,18.16
2022-09-15T22:24:48.354Z,18.07
2022-09-15T22:27:10.853Z,18.07
2022-09-15T22:29:33.725Z,18.11
2022-09-15T22:31:56.252Z,18.17
2022-09-15T22:34:18.762Z,18.21
2022-09-15T22:36:41.410Z,18.28
2022-09-15T22:39:05.338Z,18.23
2022-09-15T22:41:28.319Z,18.24
2022-09-15T22:43:50.834Z,18.20
2022-09-15T22:46:14.342Z,18.26
2022-09-15T22:48:42.486Z,18.18
2022-09-15T22:51:06.806Z,18.23
2022-09-15T22:53:29.331Z,18.23
2022-09-15T22:55:53.159Z,18.24
2022-09-15T22:58:15.988Z,18.28
2022-09-15T23:00:38.911Z,18.21
2022-09-15T23:03:01.647Z,18.26
2022-09-15T23:05:24.481Z,18.36
2022-09-15T23:07:47.146Z,18.36
2022-09-15T23:10:11.973Z,18.30
2022-09-15T23:12:34.944Z,18.33
2022-09-15T23:14:57.433Z,18.36
2022-09-15T23:17:19.970Z,18.31
2022-09-15T23:19:42.477Z,18.30
2022-09-15T23:22:05.073Z,18.31
2022-09-15T23:24:28.309Z,18.28
2022-09-15T23:26:50.809Z,18.24
2022-09-15T23:29:13.588Z,18.24
2022-09-15T23:31:36.242Z,18.30
2022-09-15T23:33:58.950Z,18.24
2022-09-15T23:36:21.967Z,18.20
2022-09-15T23:38:45.642Z,18.20
2022-09-15T23:41:09.318Z,18.20
2022-09-15T23:43:33.306Z,18.20
2022-09-15T23:45:55.841Z,18.17
2022-09-15T23:48:18.548Z,18.11
2022-09-15T23:50:41.846Z,17.91
2022-09-15T23:53:05.294Z,17.90
2022-09-15T23:55:27.993Z,17.87
2022-09-15T23:57:50.505Z,17.86
